sensor_id;sensor_type;location;lat;lon;timestamp;pressure;altitude;pressure_sealevel;temperature;humidity
24620;BME280;12763;55.802;37.404;2022-12-29T00:02:20;99262.97;;;2.01;100.00
24620;BME280;12763;55.802;37.404;2022-12-29T00:04:46;99264.84;;;2.16;100.00
24620;BME280;12763;55.802;37.404;2022-12-29T00:07:11;99258.72;;;2.14;100.00
24620;BME280;12763;55.802;37.404;2022-12-29T00:09:37;99259.75;;;2.05;100.00
24620;BME280;12763;55.802;37.404;2022-12-29T00:12:04;99261.13;;;1.93;100.00
24620;BME280;12763;55.802;37.404;2022-12-29T00:14:30;99269.97;;;1.71;100.00
24620;BME280;12763;55.802;37.404;2022-12-29T00:17:14;99267.25;;;1.79;100.00
24620;BME280;12763;55.802;37.404;2022-12-29T00:19:40;99276.72;;;1.43;100.00
24620;BME280;12763;55.802;37.404;2022-12-29T00:22:25;99273.34;;;1.49;100.00
24620;BME280;12763;55.802;37.404;2022-12-29T00:25:11;99269.09;;;1.78;100.00
24620;BME280;12763;55.802;37.404;2022-12-29T00:27:55;99272.69;;;1.87;100.00
24620;BME280;12763;55.802;37.404;2022-12-29T00:30:40;99273.53;;;1.88;100.00
24620;BME280;12763;55.802;37.404;2022-12-29T00:33:32;99281.53;;;1.89;100.00
24620;BME280;12763;55.802;37.404;2022-12-29T00:39:00;99276.75;;;1.91;100.00
24620;BME280;12763;55.802;37.404;2022-12-29T00:41:46;99275.41;;;1.95;100.00
24620;BME280;12763;55.802;37.404;2022-12-29T00:44:30;99281.84;;;2.02;100.00
24620;BME280;12763;55.802;37.404;2022-12-29T00:46:56;99283.91;;;1.84;100.00
24620;BME280;12763;55.802;37.404;2022-12-29T00:49:22;99288.69;;;1.90;100.00
24620;BME280;12763;55.802;37.404;2022-12-29T00:54:24;99290.34;;;1.75;100.00
24620;BME280;12763;55.802;37.404;2022-12-29T00:56:51;99288.16;;;1.87;100.00
24620;BME280;12763;55.802;37.404;2022-12-29T00:59:18;99289.84;;;1.71;100.00
24620;BME280;12763;55.802;37.404;2022-12-29T01:01:45;99310.59;;;1.72;100.00
24620;BME280;12763;55.802;37.404;2022-12-29T01:04:12;99291.34;;;1.58;100.00
24620;BME280;12763;55.802;37.404;2022-12-29T01:06:39;99296.13;;;1.80;100.00
24620;BME280;12763;55.802;37.404;2022-12-29T01:09:07;99306.34;;;1.78;100.00
24620;BME280;12763;55.802;37.404;2022-12-29T01:11:52;99299.31;;;1.43;100.00
24620;BME280;12763;55.802;37.404;2022-12-29T01:14:18;99295.75;;;1.43;100.00
24620;BME280;12763;55.802;37.404;2022-12-29T01:16:45;99300.16;;;1.44;100.00
24620;BME280;12763;55.802;37.404;2022-12-29T01:19:12;99318.13;;;1.29;100.00
24620;BME280;12763;55.802;37.404;2022-12-29T01:21:38;99314.81;;;1.51;100.00
24620;BME280;12763;55.802;37.404;2022-12-29T01:24:04;99316.28;;;1.29;100.00
24620;BME280;12763;55.802;37.404;2022-12-29T01:26:29;99309.69;;;1.40;100.00
24620;BME280;12763;55.802;37.404;2022-12-29T01:28:55;99318.84;;;1.47;100.00
24620;BME280;12763;55.802;37.404;2022-12-29T01:31:22;99311.75;;;1.62;100.00
24620;BME280;12763;55.802;37.404;2022-12-29T01:33:47;99305.81;;;1.58;100.00
24620;BME280;12763;55.802;37.404;2022-12-29T01:36:15;99310.06;;;1.61;100.00
24620;BME280;12763;55.802;37.404;2022-12-29T01:38:42;99313.28;;;1.56;100.00
24620;BME280;12763;55.802;37.404;2022-12-29T01:41:10;99313.50;;;1.71;100.00
24620;BME280;12763;55.802;37.404;2022-12-29T01:44:01;99306.97;;;1.40;100.00
24620;BME280;12763;55.802;37.404;2022-12-29T01:51:39;99322.31;;;1.07;100.00
24620;BME280;12763;55.802;37.404;2022-12-29T01:54:20;99305.97;;;0.99;100.00
24620;BME280;12763;55.802;37.404;2022-12-29T01:56:48;99323.06;;;0.91;100.00
24620;BME280;12763;55.802;37.404;2022-12-29T01:59:18;99310.56;;;0.98;100.00
24620;BME280;12763;55.802;37.404;2022-12-29T02:01:45;99321.22;;;0.92;100.00
24620;BME280;12763;55.802;37.404;2022-12-29T02:04:12;99318.38;;;1.01;100.00
24620;BME280;12763;55.802;37.404;2022-12-29T02:06:55;99318.75;;;1.06;100.00
24620;BME280;12763;55.802;37.404;2022-12-29T02:09:23;99314.31;;;1.05;100.00
24620;BME280;12763;55.802;37.404;2022-12-29T02:11:50;99312.41;;;0.98;100.00
24620;BME280;12763;55.802;37.404;2022-12-29T02:14:17;99336.00;;;0.97;100.00
24620;BME280;12763;55.802;37.404;2022-12-29T02:17:11;99310.56;;;0.98;100.00
24620;BME280;12763;55.802;37.404;2022-12-29T02:31:13;99323.19;;;0.74;100.00
24620;BME280;12763;55.802;37.404;2022-12-29T02:45:05;99346.56;;;0.41;100.00
24620;BME280;12763;55.802;37.404;2022-12-29T02:53:00;99354.97;;;0.30;100.00
24620;BME280;12763;55.802;37.404;2022-12-29T02:55:27;99356.28;;;0.26;100.00
24620;BME280;12763;55.802;37.404;2022-12-29T02:58:19;99348.97;;;0.44;100.00
24620;BME280;12763;55.802;37.404;2022-12-29T03:04:24;99346.13;;;0.53;100.00
24620;BME280;12763;55.802;37.404;2022-12-29T03:09:43;99340.31;;;0.48;100.00
24620;BME280;12763;55.802;37.404;2022-12-29T03:15:33;99340.66;;;0.45;100.00
24620;BME280;12763;55.802;37.404;2022-12-29T03:18:25;99348.84;;;0.53;100.00
24620;BME280;12763;55.802;37.404;2022-12-29T03:21:02;99347.44;;;0.24;100.00
24620;BME280;12763;55.802;37.404;2022-12-29T03:23:31;99349.94;;;0.61;100.00
24620;BME280;12763;55.802;37.404;2022-12-29T03:26:01;99343.69;;;0.68;100.00
24620;BME280;12763;55.802;37.404;2022-12-29T03:28:34;99364.06;;;0.72;100.00
24620;BME280;12763;55.802;37.404;2022-12-29T03:31:03;99360.63;;;0.62;100.00
24620;BME280;12763;55.802;37.404;2022-12-29T03:33:31;99353.47;;;0.61;100.00
24620;BME280;12763;55.802;37.404;2022-12-29T03:36:07;99348.09;;;0.69;100.00
24620;BME280;12763;55.802;37.404;2022-12-29T03:38:46;99363.41;;;0.27;100.00
24620;BME280;12763;55.802;37.404;2022-12-29T03:41:19;99370.75;;;0.52;100.00
24620;BME280;12763;55.802;37.404;2022-12-29T03:43:46;99373.66;;;0.33;100.00
24620;BME280;12763;55.802;37.404;2022-12-29T03:46:12;99375.00;;;0.54;100.00
24620;BME280;12763;55.802;37.404;2022-12-29T03:48:40;99384.75;;;0.04;100.00
24620;BME280;12763;55.802;37.404;2022-12-29T03:51:08;99382.72;;;0.24;100.00
24620;BME280;12763;55.802;37.404;2022-12-29T03:53:34;99386.13;;;0.26;100.00
24620;BME280;12763;55.802;37.404;2022-12-29T03:56:01;99375.06;;;-0.16;100.00
24620;BME280;12763;55.802;37.404;2022-12-29T03:58:28;99390.50;;;-0.17;100.00
24620;BME280;12763;55.802;37.404;2022-12-29T04:01:19;99383.81;;;-0.05;100.00
24620;BME280;12763;55.802;37.404;2022-12-29T04:03:45;99392.59;;;-0.28;100.00
24620;BME280;12763;55.802;37.404;2022-12-29T04:06:11;99404.22;;;-0.18;100.00
24620;BME280;12763;55.802;37.404;2022-12-29T04:08:47;99394.53;;;-0.21;100.00
24620;BME280;12763;55.802;37.404;2022-12-29T04:11:12;99403.56;;;0.06;100.00
24620;BME280;12763;55.802;37.404;2022-12-29T04:13:39;99405.69;;;-0.24;100.00
24620;BME280;12763;55.802;37.404;2022-12-29T04:16:08;99407.63;;;0.02;100.00
24620;BME280;12763;55.802;37.404;2022-12-29T04:18:35;99402.28;;;0.10;100.00
24620;BME280;12763;55.802;37.404;2022-12-29T04:21:01;99393.91;;;0.21;100.00
24620;BME280;12763;55.802;37.404;2022-12-29T04:23:35;99400.50;;;0.18;100.00
24620;BME280;12763;55.802;37.404;2022-12-29T04:26:03;99392.19;;;-0.16;100.00
24620;BME280;12763;55.802;37.404;2022-12-29T04:28:30;99392.22;;;0.02;100.00
24620;BME280;12763;55.802;37.404;2022-12-29T04:31:25;99392.59;;;-0.11;100.00
24620;BME280;12763;55.802;37.404;2022-12-29T04:33:51;99390.00;;;-0.30;100.00
24620;BME280;12763;55.802;37.404;2022-12-29T04:36:17;99397.00;;;-0.10;100.00
24620;BME280;12763;55.802;37.404;2022-12-29T04:38:42;99390.41;;;-0.07;100.00
24620;BME280;12763;55.802;37.404;2022-12-29T04:41:10;99399.63;;;0.18;100.00
24620;BME280;12763;55.802;37.404;2022-12-29T04:43:38;99393.88;;;0.38;99.00
24620;BME280;12763;55.802;37.404;2022-12-29T04:46:06;99396.28;;;0.41;99.31
24620;BME280;12763;55.802;37.404;2022-12-29T04:49:01;99400.94;;;0.31;98.51
24620;BME280;12763;55.802;37.404;2022-12-29T04:51:52;99400.53;;;0.44;97.99
24620;BME280;12763;55.802;37.404;2022-12-29T04:54:18;99396.13;;;0.25;97.21
24620;BME280;12763;55.802;37.404;2022-12-29T04:56:49;99398.69;;;0.27;97.64
24620;BME280;12763;55.802;37.404;2022-12-29T04:59:16;99402.41;;;0.26;97.71
24620;BME280;12763;55.802;37.404;2022-12-29T05:01:45;99408.31;;;0.04;98.11
24620;BME280;12763;55.802;37.404;2022-12-29T05:04:11;99412.91;;;-0.15;99.62
24620;BME280;12763;55.802;37.404;2022-12-29T05:06:37;99413.50;;;-0.21;100.00
24620;BME280;12763;55.802;37.404;2022-12-29T05:09:03;99412.81;;;-0.05;100.00
24620;BME280;12763;55.802;37.404;2022-12-29T05:11:29;99426.31;;;0.05;99.77
24620;BME280;12763;55.802;37.404;2022-12-29T05:13:57;99423.56;;;-0.13;99.81
24620;BME280;12763;55.802;37.404;2022-12-29T05:16:22;99430.59;;;-0.38;100.00
24620;BME280;12763;55.802;37.404;2022-12-29T05:18:48;99433.56;;;-0.14;100.00
24620;BME280;12763;55.802;37.404;2022-12-29T05:21:14;99433.56;;;-0.14;100.00
24620;BME280;12763;55.802;37.404;2022-12-29T05:23:41;99442.34;;;-0.02;100.00
24620;BME280;12763;55.802;37.404;2022-12-29T05:26:07;99447.47;;;-0.17;100.00
24620;BME280;12763;55.802;37.404;2022-12-29T05:29:05;99447.31;;;-0.15;100.00
24620;BME280;12763;55.802;37.404;2022-12-29T05:31:32;99451.19;;;-0.45;100.00
24620;BME280;12763;55.802;37.404;2022-12-29T05:33:59;99445.41;;;-0.32;100.00
24620;BME280;12763;55.802;37.404;2022-12-29T05:36:26;99445.28;;;-0.31;100.00
24620;BME280;12763;55.802;37.404;2022-12-29T05:38:56;99463.00;;;-0.36;100.00
24620;BME280;12763;55.802;37.404;2022-12-29T05:41:22;99457.72;;;-0.65;100.00
24620;BME280;12763;55.802;37.404;2022-12-29T05:44:07;99453.00;;;-0.63;100.00
24620;BME280;12763;55.802;37.404;2022-12-29T05:46:46;99441.63;;;-0.39;100.00
24620;BME280;12763;55.802;37.404;2022-12-29T05:49:18;99437.44;;;-0.34;100.00
24620;BME280;12763;55.802;37.404;2022-12-29T05:52:16;99449.84;;;-0.58;100.00
24620;BME280;12763;55.802;37.404;2022-12-29T05:54:42;99448.69;;;-0.56;100.00
24620;BME280;12763;55.802;37.404;2022-12-29T05:57:11;99441.19;;;-0.17;100.00
24620;BME280;12763;55.802;37.404;2022-12-29T05:59:39;99447.97;;;-0.31;100.00
24620;BME280;12763;55.802;37.404;2022-12-29T06:02:04;99448.00;;;-0.58;100.00
24620;BME280;12763;55.802;37.404;2022-12-29T06:04:30;99439.94;;;-0.23;100.00
24620;BME280;12763;55.802;37.404;2022-12-29T06:06:57;99439.34;;;-0.17;100.00
24620;BME280;12763;55.802;37.404;2022-12-29T06:09:33;99446.97;;;-0.30;100.00
24620;BME280;12763;55.802;37.404;2022-12-29T06:12:00;99467.34;;;-0.26;100.00
24620;BME280;12763;55.802;37.404;2022-12-29T06:14:26;99453.63;;;-0.42;100.00
24620;BME280;12763;55.802;37.404;2022-12-29T06:16:52;99447.78;;;-0.20;100.00
24620;BME280;12763;55.802;37.404;2022-12-29T06:19:18;99458.56;;;0.08;99.87
24620;BME280;12763;55.802;37.404;2022-12-29T06:21:44;99444.91;;;-0.01;99.94
24620;BME280;12763;55.802;37.404;2022-12-29T06:24:10;99461.06;;;0.19;99.18
24620;BME280;12763;55.802;37.404;2022-12-29T06:26:37;99455.63;;;0.19;99.05
24620;BME280;12763;55.802;37.404;2022-12-29T06:29:02;99459.03;;;0.21;98.90
24620;BME280;12763;55.802;37.404;2022-12-29T06:31:28;99455.47;;;0.03;99.06
24620;BME280;12763;55.802;37.404;2022-12-29T06:33:54;99462.56;;;0.04;99.10
24620;BME280;12763;55.802;37.404;2022-12-29T06:36:20;99472.47;;;-0.23;99.96
24620;BME280;12763;55.802;37.404;2022-12-29T06:38:46;99462.09;;;-0.10;99.69
24620;BME280;12763;55.802;37.404;2022-12-29T06:41:12;99466.97;;;-0.13;100.00
24620;BME280;12763;55.802;37.404;2022-12-29T06:43:57;99460.91;;;0.03;98.98
24620;BME280;12763;55.802;37.404;2022-12-29T06:46:35;99470.34;;;-0.02;98.57
24620;BME280;12763;55.802;37.404;2022-12-29T06:49:01;99456.53;;;0.10;98.59
24620;BME280;12763;55.802;37.404;2022-12-29T06:51:27;99468.97;;;0.30;98.07
24620;BME280;12763;55.802;37.404;2022-12-29T06:53:53;99462.81;;;0.10;97.99
24620;BME280;12763;55.802;37.404;2022-12-29T06:56:19;99478.38;;;-0.10;98.72
24620;BME280;12763;55.802;37.404;2022-12-29T06:58:45;99470.72;;;-0.14;99.52
24620;BME280;12763;55.802;37.404;2022-12-29T07:01:10;99464.75;;;0.18;98.88
24620;BME280;12763;55.802;37.404;2022-12-29T07:03:36;99476.09;;;0.13;98.13
24620;BME280;12763;55.802;37.404;2022-12-29T07:06:03;99466.16;;;0.22;98.45
24620;BME280;12763;55.802;37.404;2022-12-29T07:08:29;99470.03;;;0.02;97.94
24620;BME280;12763;55.802;37.404;2022-12-29T07:10:54;99474.28;;;0.04;98.41
24620;BME280;12763;55.802;37.404;2022-12-29T07:13:20;99484.03;;;-0.21;99.14
24620;BME280;12763;55.802;37.404;2022-12-29T07:15:46;99483.84;;;-0.19;99.58
24620;BME280;12763;55.802;37.404;2022-12-29T07:18:11;99479.03;;;0.02;98.93
24620;BME280;12763;55.802;37.404;2022-12-29T07:20:37;99475.50;;;-0.08;98.93
24620;BME280;12763;55.802;37.404;2022-12-29T07:23:03;99478.84;;;0.04;99.00
24620;BME280;12763;55.802;37.404;2022-12-29T07:25:29;99469.56;;;-0.12;98.53
24620;BME280;12763;55.802;37.404;2022-12-29T07:27:55;99481.06;;;-0.27;99.78
24620;BME280;12763;55.802;37.404;2022-12-29T07:30:20;99491.47;;;-0.23;99.17
24620;BME280;12763;55.802;37.404;2022-12-29T07:32:46;99484.53;;;-0.35;100.00
24620;BME280;12763;55.802;37.404;2022-12-29T07:35:12;99477.09;;;-0.33;100.00
24620;BME280;12763;55.802;37.404;2022-12-29T07:37:38;99480.03;;;0.01;98.57
24620;BME280;12763;55.802;37.404;2022-12-29T07:40:04;99469.47;;;0.33;97.94
24620;BME280;12763;55.802;37.404;2022-12-29T07:42:31;99474.94;;;0.16;97.94
24620;BME280;12763;55.802;37.404;2022-12-29T07:44:58;99475.06;;;0.14;96.74
24620;BME280;12763;55.802;37.404;2022-12-29T07:47:29;99473.81;;;0.09;97.41
24620;BME280;12763;55.802;37.404;2022-12-29T07:49:55;99480.34;;;0.33;96.39
24620;BME280;12763;55.802;37.404;2022-12-29T07:52:20;99481.44;;;0.40;96.29
24620;BME280;12763;55.802;37.404;2022-12-29T07:54:47;99475.38;;;0.46;95.20
24620;BME280;12763;55.802;37.404;2022-12-29T07:57:12;99488.00;;;0.55;95.56
24620;BME280;12763;55.802;37.404;2022-12-29T07:59:38;99482.31;;;0.41;95.64
24620;BME280;12763;55.802;37.404;2022-12-29T08:02:04;99498.34;;;0.52;95.73
24620;BME280;12763;55.802;37.404;2022-12-29T08:04:30;99495.63;;;0.34;95.88
24620;BME280;12763;55.802;37.404;2022-12-29T08:06:55;99493.00;;;0.25;96.20
24620;BME280;12763;55.802;37.404;2022-12-29T08:09:21;99498.09;;;0.28;95.92
24620;BME280;12763;55.802;37.404;2022-12-29T08:11:47;99498.09;;;0.28;95.82
24620;BME280;12763;55.802;37.404;2022-12-29T08:14:12;99489.25;;;0.26;96.42
24620;BME280;12763;55.802;37.404;2022-12-29T08:16:38;99486.00;;;0.40;95.43
24620;BME280;12763;55.802;37.404;2022-12-29T08:19:04;99512.09;;;0.06;96.06
24620;BME280;12763;55.802;37.404;2022-12-29T08:21:30;99496.31;;;0.01;96.93
24620;BME280;12763;55.802;37.404;2022-12-29T08:23:56;99506.06;;;0.12;96.81
24620;BME280;12763;55.802;37.404;2022-12-29T08:26:22;99509.31;;;-0.03;97.03
24620;BME280;12763;55.802;37.404;2022-12-29T08:28:48;99505.84;;;0.23;96.30
24620;BME280;12763;55.802;37.404;2022-12-29T08:31:13;99496.88;;;0.40;95.65
24620;BME280;12763;55.802;37.404;2022-12-29T08:33:39;99495.38;;;0.28;96.64
24620;BME280;12763;55.802;37.404;2022-12-29T08:36:06;99503.88;;;0.25;96.50
24620;BME280;12763;55.802;37.404;2022-12-29T08:38:32;99496.94;;;0.48;96.21
24620;BME280;12763;55.802;37.404;2022-12-29T08:40:59;99498.50;;;0.33;95.97
24620;BME280;12763;55.802;37.404;2022-12-29T08:43:27;99497.03;;;0.21;96.42
24620;BME280;12763;55.802;37.404;2022-12-29T08:45:53;99505.69;;;0.42;96.15
24620;BME280;12763;55.802;37.404;2022-12-29T08:48:19;99502.00;;;0.43;94.67
24620;BME280;12763;55.802;37.404;2022-12-29T08:50:48;99498.22;;;0.36;95.64
24620;BME280;12763;55.802;37.404;2022-12-29T08:53:15;99501.53;;;0.30;95.98
24620;BME280;12763;55.802;37.404;2022-12-29T08:55:41;99506.19;;;0.55;94.85
24620;BME280;12763;55.802;37.404;2022-12-29T08:58:06;99503.53;;;0.28;94.22
24620;BME280;12763;55.802;37.404;2022-12-29T09:00:35;99513.75;;;-0.02;96.36
24620;BME280;12763;55.802;37.404;2022-12-29T09:03:01;99511.13;;;0.42;95.54
24620;BME280;12763;55.802;37.404;2022-12-29T09:05:27;99511.13;;;0.42;95.12
24620;BME280;12763;55.802;37.404;2022-12-29T09:07:53;99516.84;;;0.04;96.08
24620;BME280;12763;55.802;37.404;2022-12-29T09:10:19;99509.28;;;0.25;96.58
24620;BME280;12763;55.802;37.404;2022-12-29T09:12:44;99512.69;;;0.27;96.45
24620;BME280;12763;55.802;37.404;2022-12-29T09:15:10;99513.22;;;0.48;95.99
24620;BME280;12763;55.802;37.404;2022-12-29T09:17:37;99505.84;;;0.76;95.57
24620;BME280;12763;55.802;37.404;2022-12-29T09:20:14;99511.94;;;0.52;95.84
24620;BME280;12763;55.802;37.404;2022-12-29T09:22:41;99505.53;;;0.61;95.40
24620;BME280;12763;55.802;37.404;2022-12-29T09:25:07;99512.22;;;0.49;95.76
24620;BME280;12763;55.802;37.404;2022-12-29T09:27:35;99506.81;;;0.92;95.03
24620;BME280;12763;55.802;37.404;2022-12-29T09:30:02;99506.88;;;1.00;93.88
24620;BME280;12763;55.802;37.404;2022-12-29T09:32:29;99505.03;;;0.83;93.70
24620;BME280;12763;55.802;37.404;2022-12-29T09:34:55;99502.53;;;1.07;93.49
24620;BME280;12763;55.802;37.404;2022-12-29T09:37:21;99512.94;;;0.94;93.57
24620;BME280;12763;55.802;37.404;2022-12-29T09:39:47;99506.88;;;1.00;93.52
24620;BME280;12763;55.802;37.404;2022-12-29T09:43:02;99509.03;;;1.14;92.76
24620;BME280;12763;55.802;37.404;2022-12-29T09:45:32;99508.78;;;0.82;93.02
24620;BME280;12763;55.802;37.404;2022-12-29T09:48:03;99508.72;;;0.56;93.97
24620;BME280;12763;55.802;37.404;2022-12-29T09:50:33;99505.94;;;0.66;94.47
24620;BME280;12763;55.802;37.404;2022-12-29T09:53:25;99505.69;;;0.77;94.63
24620;BME280;12763;55.802;37.404;2022-12-29T09:55:55;99513.06;;;0.85;93.75
24620;BME280;12763;55.802;37.404;2022-12-29T09:58:32;99504.88;;;0.41;95.21
24620;BME280;12763;55.802;37.404;2022-12-29T10:01:01;99503.72;;;0.44;95.65
24620;BME280;12763;55.802;37.404;2022-12-29T10:03:48;99503.97;;;0.76;95.11
24620;BME280;12763;55.802;37.404;2022-12-29T10:06:23;99501.34;;;0.84;93.92
24620;BME280;12763;55.802;37.404;2022-12-29T10:14:58;99496.94;;;1.35;92.85
24620;BME280;12763;55.802;37.404;2022-12-29T10:17:27;99489.16;;;1.48;92.52
24620;BME280;12763;55.802;37.404;2022-12-29T10:20:12;99489.22;;;1.56;90.86
24620;BME280;12763;55.802;37.404;2022-12-29T10:25:25;99492.75;;;1.82;90.97
24620;BME280;12763;55.802;37.404;2022-12-29T10:27:54;99493.72;;;1.73;89.85
24620;BME280;12763;55.802;37.404;2022-12-29T10:30:22;99489.31;;;1.80;89.45
24620;BME280;12763;55.802;37.404;2022-12-29T10:32:51;99494.91;;;1.70;89.87
24620;BME280;12763;55.802;37.404;2022-12-29T10:35:22;99494.44;;;1.83;89.73
24620;BME280;12763;55.802;37.404;2022-12-29T10:40:26;99492.59;;;2.00;88.94
24620;BME280;12763;55.802;37.404;2022-12-29T10:42:59;99495.53;;;2.06;89.24
24620;BME280;12763;55.802;37.404;2022-12-29T10:45:29;99490.78;;;2.08;88.88
24620;BME280;12763;55.802;37.404;2022-12-29T10:48:10;99478.88;;;2.09;88.66
24620;BME280;12763;55.802;37.404;2022-12-29T10:50:38;99487.38;;;2.06;88.34
24620;BME280;12763;55.802;37.404;2022-12-29T10:53:12;99488.25;;;2.15;88.62
24620;BME280;12763;55.802;37.404;2022-12-29T10:55:41;99475.44;;;2.07;88.19
24620;BME280;12763;55.802;37.404;2022-12-29T10:58:11;99480.19;;;1.97;88.38
24620;BME280;12763;55.802;37.404;2022-12-29T11:00:38;99484.22;;;1.85;89.06
24620;BME280;12763;55.802;37.404;2022-12-29T11:06:13;99485.91;;;1.78;90.22
24620;BME280;12763;55.802;37.404;2022-12-29T11:08:51;99478.13;;;1.91;89.52
24620;BME280;12763;55.802;37.404;2022-12-29T11:11:24;99476.59;;;1.97;89.32
24620;BME280;12763;55.802;37.404;2022-12-29T11:14:01;99470.25;;;1.80;89.58
24620;BME280;12763;55.802;37.404;2022-12-29T11:16:33;99476.03;;;1.77;90.11
24620;BME280;12763;55.802;37.404;2022-12-29T11:19:00;99470.81;;;1.92;89.54
24620;BME280;12763;55.802;37.404;2022-12-29T11:21:35;99469.00;;;2.08;89.60
24620;BME280;12763;55.802;37.404;2022-12-29T11:24:21;99463.56;;;2.16;88.65
24620;BME280;12763;55.802;37.404;2022-12-29T11:26:55;99468.53;;;2.21;88.12
24620;BME280;12763;55.802;37.404;2022-12-29T11:29:27;99466.63;;;2.21;88.12
24620;BME280;12763;55.802;37.404;2022-12-29T11:31:55;99472.06;;;2.21;88.07
24620;BME280;12763;55.802;37.404;2022-12-29T11:34:31;99469.22;;;2.31;87.70
24620;BME280;12763;55.802;37.404;2022-12-29T11:37:24;99460.19;;;2.30;86.97
24620;BME280;12763;55.802;37.404;2022-12-29T11:40:05;99464.63;;;2.23;87.40
24620;BME280;12763;55.802;37.404;2022-12-29T11:42:55;99467.66;;;2.20;88.18
24620;BME280;12763;55.802;37.404;2022-12-29T11:45:24;99469.19;;;2.23;87.21
24620;BME280;12763;55.802;37.404;2022-12-29T11:48:18;99466.28;;;2.16;87.79
24620;BME280;12763;55.802;37.404;2022-12-29T11:50:51;99476.13;;;2.01;88.58
24620;BME280;12763;55.802;37.404;2022-12-29T11:53:23;99474.28;;;2.10;88.47
24620;BME280;12763;55.802;37.404;2022-12-29T11:56:05;99493.13;;;2.03;87.63
24620;BME280;12763;55.802;37.404;2022-12-29T11:58:34;99495.00;;;2.03;88.19
24620;BME280;12763;55.802;37.404;2022-12-29T12:01:17;99496.38;;;1.99;87.92
24620;BME280;12763;55.802;37.404;2022-12-29T12:06:23;99500.41;;;1.87;88.90
24620;BME280;12763;55.802;37.404;2022-12-29T12:09:14;99506.03;;;1.93;88.50
24620;BME280;12763;55.802;37.404;2022-12-29T12:11:42;99498.72;;;2.02;88.57
24620;BME280;12763;55.802;37.404;2022-12-29T12:14:53;99504.06;;;2.11;88.49
24620;BME280;12763;55.802;37.404;2022-12-29T12:20:51;99496.22;;;2.16;88.42
24620;BME280;12763;55.802;37.404;2022-12-29T12:28:45;99490.09;;;2.14;87.98
24620;BME280;12763;55.802;37.404;2022-12-29T12:34:01;99486.31;;;2.07;88.16
24620;BME280;12763;55.802;37.404;2022-12-29T12:47:33;99493.03;;;2.21;87.96
24620;BME280;12763;55.802;37.404;2022-12-29T13:00:23;99485.53;;;2.23;88.63
24620;BME280;12763;55.802;37.404;2022-12-29T13:10:50;99490.97;;;2.23;89.25
24620;BME280;12763;55.802;37.404;2022-12-29T13:21:38;99490.97;;;2.23;89.78
24620;BME280;12763;55.802;37.404;2022-12-29T13:24:32;99494.91;;;2.20;89.72
24620;BME280;12763;55.802;37.404;2022-12-29T13:35:05;99489.94;;;2.16;91.06
24620;BME280;12763;55.802;37.404;2022-12-29T13:37:39;99483.66;;;2.23;91.31
24620;BME280;12763;55.802;37.404;2022-12-29T13:40:16;99490.81;;;2.24;91.58
24620;BME280;12763;55.802;37.404;2022-12-29T13:42:42;99484.03;;;2.28;91.36
24620;BME280;12763;55.802;37.404;2022-12-29T13:45:17;99483.34;;;2.34;91.05
24620;BME280;12763;55.802;37.404;2022-12-29T13:47:47;99477.91;;;2.34;90.63
24620;BME280;12763;55.802;37.404;2022-12-29T13:50:21;99476.19;;;2.33;90.89
24620;BME280;12763;55.802;37.404;2022-12-29T13:53:18;99476.72;;;2.37;91.58
24620;BME280;12763;55.802;37.404;2022-12-29T14:01:34;99484.03;;;2.28;92.04
24620;BME280;12763;55.802;37.404;2022-12-29T14:04:29;99491.19;;;2.46;92.20
24620;BME280;12763;55.802;37.404;2022-12-29T14:07:04;99487.63;;;2.45;91.37
24620;BME280;12763;55.802;37.404;2022-12-29T14:09:48;99485.38;;;2.41;91.95
24620;BME280;12763;55.802;37.404;2022-12-29T14:12:37;99477.06;;;2.50;92.02
24620;BME280;12763;55.802;37.404;2022-12-29T14:15:06;99485.91;;;2.36;91.94
24620;BME280;12763;55.802;37.404;2022-12-29T14:18:24;99490.66;;;2.26;93.84
24620;BME280;12763;55.802;37.404;2022-12-29T14:23:38;99493.88;;;2.37;94.95
24620;BME280;12763;55.802;37.404;2022-12-29T14:28:36;99491.34;;;2.52;94.21
24620;BME280;12763;55.802;37.404;2022-12-29T14:33:35;99485.44;;;2.65;93.59
24620;BME280;12763;55.802;37.404;2022-12-29T14:36:20;99487.81;;;2.68;93.70
24620;BME280;12763;55.802;37.404;2022-12-29T14:38:47;99488.50;;;2.70;93.74
24620;BME280;12763;55.802;37.404;2022-12-29T14:41:40;99487.47;;;2.79;94.27
24620;BME280;12763;55.802;37.404;2022-12-29T14:44:18;99487.81;;;2.68;94.25
24620;BME280;12763;55.802;37.404;2022-12-29T14:46:55;99488.81;;;2.75;94.79
24620;BME280;12763;55.802;37.404;2022-12-29T14:49:25;99483.19;;;2.76;94.56
24620;BME280;12763;55.802;37.404;2022-12-29T14:52:04;99489.16;;;2.72;94.13
24620;BME280;12763;55.802;37.404;2022-12-29T14:54:41;99489.34;;;2.78;94.72
24620;BME280;12763;55.802;37.404;2022-12-29T14:57:17;99497.00;;;2.83;94.59
24620;BME280;12763;55.802;37.404;2022-12-29T14:59:46;99489.69;;;2.83;94.37
24620;BME280;12763;55.802;37.404;2022-12-29T15:02:24;99491.22;;;2.78;93.90
24620;BME280;12763;55.802;37.404;2022-12-29T15:04:51;99482.69;;;2.65;94.79
24620;BME280;12763;55.802;37.404;2022-12-29T15:07:19;99494.47;;;2.73;95.23
24620;BME280;12763;55.802;37.404;2022-12-29T15:09:50;99491.22;;;2.62;95.50
24620;BME280;12763;55.802;37.404;2022-12-29T15:14:53;99493.59;;;2.57;95.74
24620;BME280;12763;55.802;37.404;2022-12-29T15:17:29;99487.09;;;2.66;96.20
24620;BME280;12763;55.802;37.404;2022-12-29T15:19:57;99486.25;;;2.49;96.14
24620;BME280;12763;55.802;37.404;2022-12-29T15:22:24;99491.53;;;2.43;97.58
24620;BME280;12763;55.802;37.404;2022-12-29T15:24:52;99485.44;;;2.57;97.00
24620;BME280;12763;55.802;37.404;2022-12-29T15:27:23;99486.25;;;2.49;96.62
24620;BME280;12763;55.802;37.404;2022-12-29T15:30:11;99472.13;;;2.54;97.16
24620;BME280;12763;55.802;37.404;2022-12-29T15:32:45;99479.78;;;2.58;96.46
24620;BME280;12763;55.802;37.404;2022-12-29T15:35:36;99476.22;;;2.58;97.08
24620;BME280;12763;55.802;37.404;2022-12-29T15:38:20;99484.38;;;2.66;96.79